sensor_id;sensor_type;location;lat;lon;timestamp;P1;durP1;ratioP1;P2;durP2;ratioP2
63943;SDS011;50121;51.218;7.664;2023-04-03T00:00:45;5.80;;;5.18;;
63943;SDS011;50121;51.218;7.664;2023-04-03T00:03:13;6.18;;;5.68;;
63943;SDS011;50121;51.218;7.664;2023-04-03T00:05:40;7.15;;;5.85;;
63943;SDS011;50121;51.218;7.664;2023-04-03T00:08:08;6.75;;;6.05;;
63943;SDS011;50121;51.218;7.664;2023-04-03T00:10:36;6.47;;;5.95;;
63943;SDS011;50121;51.218;7.664;2023-04-03T00:13:04;6.35;;;5.70;;
63943;SDS011;50121;51.218;7.664;2023-04-03T00:15:32;6.35;;;5.82;;
63943;SDS011;50121;51.218;7.664;2023-04-03T00:18:00;6.45;;;5.50;;
63943;SDS011;50121;51.218;7.664;2023-04-03T00:20:27;7.82;;;5.93;;
63943;SDS011;50121;51.218;7.664;2023-04-03T00:22:55;7.35;;;6.32;;
63943;SDS011;50121;51.218;7.664;2023-04-03T00:25:23;6.60;;;6.00;;
63943;SDS011;50121;51.218;7.664;2023-04-03T00:27:50;6.63;;;6.03;;
63943;SDS011;50121;51.218;7.664;2023-04-03T00:30:19;6.93;;;5.90;;
63943;SDS011;50121;51.218;7.664;2023-04-03T00:32:47;6.88;;;6.20;;
63943;SDS011;50121;51.218;7.664;2023-04-03T00:35:15;6.97;;;5.82;;
63943;SDS011;50121;51.218;7.664;2023-04-03T00:37:43;7.70;;;6.68;;
63943;SDS011;50121;51.218;7.664;2023-04-03T00:40:11;6.85;;;6.15;;
63943;SDS011;50121;51.218;7.664;2023-04-03T00:42:40;8.35;;;6.28;;
63943;SDS011;50121;51.218;7.664;2023-04-03T00:47:39;7.28;;;5.90;;
63943;SDS011;50121;51.218;7.664;2023-04-03T00:50:08;8.40;;;6.10;;
63943;SDS011;50121;51.218;7.664;2023-04-03T00:52:36;6.90;;;6.15;;
63943;SDS011;50121;51.218;7.664;2023-04-03T00:55:06;6.70;;;6.10;;
63943;SDS011;50121;51.218;7.664;2023-04-03T00:57:34;7.20;;;6.32;;
63943;SDS011;50121;51.218;7.664;2023-04-03T01:00:07;7.05;;;6.32;;
63943;SDS011;50121;51.218;7.664;2023-04-03T01:02:36;7.47;;;6.07;;
63943;SDS011;50121;51.218;7.664;2023-04-03T01:05:04;11.38;;;6.38;;
63943;SDS011;50121;51.218;7.664;2023-04-03T01:07:32;7.75;;;5.90;;
63943;SDS011;50121;51.218;7.664;2023-04-03T01:10:02;9.30;;;6.55;;
63943;SDS011;50121;51.218;7.664;2023-04-03T01:12:32;6.88;;;6.05;;
63943;SDS011;50121;51.218;7.664;2023-04-03T01:15:03;7.93;;;6.25;;
63943;SDS011;50121;51.218;7.664;2023-04-03T01:17:33;6.57;;;5.97;;
63943;SDS011;50121;51.218;7.664;2023-04-03T01:20:08;6.32;;;5.72;;
63943;SDS011;50121;51.218;7.664;2023-04-03T01:25:19;6.68;;;6.07;;
63943;SDS011;50121;51.218;7.664;2023-04-03T01:27:46;8.35;;;5.95;;
63943;SDS011;50121;51.218;7.664;2023-04-03T01:30:14;7.05;;;6.35;;
63943;SDS011;50121;51.218;7.664;2023-04-03T01:32:43;9.65;;;5.53;;
63943;SDS011;50121;51.218;7.664;2023-04-03T01:35:12;6.05;;;5.55;;
63943;SDS011;50121;51.218;7.664;2023-04-03T01:37:40;10.60;;;6.30;;
63943;SDS011;50121;51.218;7.664;2023-04-03T01:40:08;6.75;;;5.97;;
63943;SDS011;50121;51.218;7.664;2023-04-03T01:42:37;8.55;;;6.80;;
63943;SDS011;50121;51.218;7.664;2023-04-03T01:45:05;8.57;;;6.28;;
63943;SDS011;50121;51.218;7.664;2023-04-03T01:47:32;7.25;;;6.45;;
63943;SDS011;50121;51.218;7.664;2023-04-03T01:50:00;7.93;;;6.78;;
63943;SDS011;50121;51.218;7.664;2023-04-03T01:52:31;7.93;;;6.43;;
63943;SDS011;50121;51.218;7.664;2023-04-03T01:54:59;7.70;;;6.60;;
63943;SDS011;50121;51.218;7.664;2023-04-03T01:57:26;7.15;;;6.55;;
63943;SDS011;50121;51.218;7.664;2023-04-03T01:59:54;7.95;;;5.70;;
63943;SDS011;50121;51.218;7.664;2023-04-03T02:02:21;6.78;;;5.75;;
63943;SDS011;50121;51.218;7.664;2023-04-03T02:04:51;8.55;;;5.90;;
63943;SDS011;50121;51.218;7.664;2023-04-03T02:07:18;5.57;;;5.18;;
63943;SDS011;50121;51.218;7.664;2023-04-03T02:09:46;6.97;;;5.93;;
63943;SDS011;50121;51.218;7.664;2023-04-03T02:12:14;6.50;;;5.90;;
63943;SDS011;50121;51.218;7.664;2023-04-03T02:14:42;6.53;;;5.90;;
63943;SDS011;50121;51.218;7.664;2023-04-03T02:17:11;8.10;;;5.90;;
63943;SDS011;50121;51.218;7.664;2023-04-03T02:19:38;6.75;;;6.15;;
63943;SDS011;50121;51.218;7.664;2023-04-03T02:22:06;8.27;;;6.15;;
63943;SDS011;50121;51.218;7.664;2023-04-03T02:24:34;6.07;;;5.25;;
63943;SDS011;50121;51.218;7.664;2023-04-03T02:27:02;6.38;;;5.45;;
63943;SDS011;50121;51.218;7.664;2023-04-03T02:29:30;5.88;;;5.43;;
63943;SDS011;50121;51.218;7.664;2023-04-03T02:31:57;6.38;;;5.68;;
63943;SDS011;50121;51.218;7.664;2023-04-03T02:34:25;6.10;;;5.50;;
63943;SDS011;50121;51.218;7.664;2023-04-03T02:36:54;9.38;;;6.10;;
63943;SDS011;50121;51.218;7.664;2023-04-03T02:39:21;6.75;;;5.72;;
63943;SDS011;50121;51.218;7.664;2023-04-03T02:41:49;6.85;;;5.75;;
63943;SDS011;50121;51.218;7.664;2023-04-03T02:44:22;7.70;;;5.63;;
63943;SDS011;50121;51.218;7.664;2023-04-03T02:46:51;6.85;;;6.18;;
63943;SDS011;50121;51.218;7.664;2023-04-03T02:49:19;6.53;;;5.82;;
63943;SDS011;50121;51.218;7.664;2023-04-03T02:51:46;8.48;;;6.07;;
63943;SDS011;50121;51.218;7.664;2023-04-03T02:54:14;5.85;;;5.10;;
63943;SDS011;50121;51.218;7.664;2023-04-03T02:56:46;6.60;;;5.90;;
63943;SDS011;50121;51.218;7.664;2023-04-03T02:59:14;9.15;;;6.13;;
63943;SDS011;50121;51.218;7.664;2023-04-03T03:01:42;6.30;;;5.80;;
63943;SDS011;50121;51.218;7.664;2023-04-03T03:04:09;5.93;;;5.00;;
63943;SDS011;50121;51.218;7.664;2023-04-03T03:06:37;10.65;;;5.32;;
63943;SDS011;50121;51.218;7.664;2023-04-03T03:09:05;5.90;;;5.38;;
63943;SDS011;50121;51.218;7.664;2023-04-03T03:11:33;6.75;;;5.65;;
63943;SDS011;50121;51.218;7.664;2023-04-03T03:14:01;11.38;;;5.70;;
63943;SDS011;50121;51.218;7.664;2023-04-03T03:16:29;6.15;;;5.57;;
63943;SDS011;50121;51.218;7.664;2023-04-03T03:18:56;7.30;;;5.15;;
63943;SDS011;50121;51.218;7.664;2023-04-03T03:21:24;6.32;;;5.65;;
63943;SDS011;50121;51.218;7.664;2023-04-03T03:23:52;5.90;;;5.30;;
63943;SDS011;50121;51.218;7.664;2023-04-03T03:26:20;6.30;;;5.80;;
63943;SDS011;50121;51.218;7.664;2023-04-03T03:28:47;7.00;;;5.53;;
63943;SDS011;50121;51.218;7.664;2023-04-03T03:31:15;6.05;;;5.43;;
63943;SDS011;50121;51.218;7.664;2023-04-03T03:33:42;6.07;;;5.47;;
63943;SDS011;50121;51.218;7.664;2023-04-03T03:36:10;6.35;;;5.57;;
63943;SDS011;50121;51.218;7.664;2023-04-03T03:38:37;5.93;;;5.35;;
63943;SDS011;50121;51.218;7.664;2023-04-03T03:41:05;6.20;;;5.60;;
63943;SDS011;50121;51.218;7.664;2023-04-03T03:43:34;5.82;;;5.25;;
63943;SDS011;50121;51.218;7.664;2023-04-03T03:46:07;6.05;;;5.40;;
63943;SDS011;50121;51.218;7.664;2023-04-03T03:48:34;5.97;;;5.43;;
63943;SDS011;50121;51.218;7.664;2023-04-03T03:51:02;5.57;;;5.07;;
63943;SDS011;50121;51.218;7.664;2023-04-03T03:53:34;6.18;;;5.40;;
63943;SDS011;50121;51.218;7.664;2023-04-03T03:56:05;8.68;;;5.53;;
63943;SDS011;50121;51.218;7.664;2023-04-03T03:58:35;7.68;;;5.70;;
63943;SDS011;50121;51.218;7.664;2023-04-03T04:01:03;7.80;;;5.43;;
63943;SDS011;50121;51.218;7.664;2023-04-03T04:03:33;9.90;;;6.30;;
63943;SDS011;50121;51.218;7.664;2023-04-03T04:06:01;8.27;;;6.25;;
63943;SDS011;50121;51.218;7.664;2023-04-03T04:08:29;6.65;;;5.60;;
63943;SDS011;50121;51.218;7.664;2023-04-03T04:10:57;6.22;;;5.07;;
63943;SDS011;50121;51.218;7.664;2023-04-03T04:13:24;7.47;;;5.30;;
63943;SDS011;50121;51.218;7.664;2023-04-03T04:15:52;5.93;;;4.63;;
63943;SDS011;50121;51.218;7.664;2023-04-03T04:18:19;6.72;;;4.85;;
63943;SDS011;50121;51.218;7.664;2023-04-03T04:20:48;5.25;;;4.63;;
63943;SDS011;50121;51.218;7.664;2023-04-03T04:23:17;5.80;;;5.30;;
63943;SDS011;50121;51.218;7.664;2023-04-03T04:25:47;6.88;;;5.38;;
63943;SDS011;50121;51.218;7.664;2023-04-03T04:28:15;5.78;;;5.18;;
63943;SDS011;50121;51.218;7.664;2023-04-03T04:30:43;6.85;;;6.05;;
63943;SDS011;50121;51.218;7.664;2023-04-03T04:33:13;5.50;;;4.63;;
63943;SDS011;50121;51.218;7.664;2023-04-03T04:35:42;6.15;;;4.50;;
63943;SDS011;50121;51.218;7.664;2023-04-03T04:38:10;5.53;;;5.03;;
63943;SDS011;50121;51.218;7.664;2023-04-03T04:40:38;5.95;;;5.40;;
63943;SDS011;50121;51.218;7.664;2023-04-03T04:43:06;6.85;;;4.70;;
63943;SDS011;50121;51.218;7.664;2023-04-03T04:45:35;5.38;;;4.97;;
63943;SDS011;50121;51.218;7.664;2023-04-03T04:48:02;5.10;;;4.70;;
63943;SDS011;50121;51.218;7.664;2023-04-03T04:50:30;15.02;;;10.38;;
63943;SDS011;50121;51.218;7.664;2023-04-03T04:52:58;10.05;;;6.00;;
63943;SDS011;50121;51.218;7.664;2023-04-03T04:55:26;6.32;;;5.25;;
63943;SDS011;50121;51.218;7.664;2023-04-03T04:57:54;5.65;;;5.10;;
63943;SDS011;50121;51.218;7.664;2023-04-03T05:00:22;6.95;;;5.72;;
63943;SDS011;50121;51.218;7.664;2023-04-03T05:02:49;5.22;;;4.72;;
63943;SDS011;50121;51.218;7.664;2023-04-03T05:05:18;5.55;;;5.05;;
63943;SDS011;50121;51.218;7.664;2023-04-03T05:07:46;5.65;;;4.80;;
63943;SDS011;50121;51.218;7.664;2023-04-03T05:10:15;6.47;;;5.57;;
63943;SDS011;50121;51.218;7.664;2023-04-03T05:12:44;8.45;;;5.45;;
63943;SDS011;50121;51.218;7.664;2023-04-03T05:15:12;6.53;;;4.63;;
63943;SDS011;50121;51.218;7.664;2023-04-03T05:17:39;8.50;;;4.82;;
63943;SDS011;50121;51.218;7.664;2023-04-03T05:20:10;17.13;;;10.55;;
63943;SDS011;50121;51.218;7.664;2023-04-03T05:22:39;10.63;;;6.40;;
63943;SDS011;50121;51.218;7.664;2023-04-03T05:25:09;5.25;;;4.43;;
63943;SDS011;50121;51.218;7.664;2023-04-03T05:27:40;7.68;;;5.20;;
63943;SDS011;50121;51.218;7.664;2023-04-03T05:30:08;8.32;;;5.00;;
63943;SDS011;50121;51.218;7.664;2023-04-03T05:32:37;10.55;;;9.63;;
63943;SDS011;50121;51.218;7.664;2023-04-03T05:35:13;6.78;;;6.03;;
63943;SDS011;50121;51.218;7.664;2023-04-03T05:37:41;5.57;;;4.00;;
63943;SDS011;50121;51.218;7.664;2023-04-03T05:40:10;4.70;;;4.10;;
63943;SDS011;50121;51.218;7.664;2023-04-03T05:42:41;5.20;;;4.00;;
63943;SDS011;50121;51.218;7.664;2023-04-03T05:45:09;5.53;;;4.65;;
63943;SDS011;50121;51.218;7.664;2023-04-03T05:47:36;6.43;;;4.13;;
63943;SDS011;50121;51.218;7.664;2023-04-03T05:50:06;8.20;;;4.22;;
63943;SDS011;50121;51.218;7.664;2023-04-03T05:52:35;7.25;;;4.30;;
63943;SDS011;50121;51.218;7.664;2023-04-03T05:55:04;6.38;;;4.43;;
63943;SDS011;50121;51.218;7.664;2023-04-03T05:57:33;7.50;;;3.90;;
63943;SDS011;50121;51.218;7.664;2023-04-03T06:00:04;17.60;;;10.00;;
63943;SDS011;50121;51.218;7.664;2023-04-03T06:02:39;8.52;;;4.30;;
63943;SDS011;50121;51.218;7.664;2023-04-03T06:05:14;5.78;;;3.40;;
63943;SDS011;50121;51.218;7.664;2023-04-03T06:07:41;6.57;;;3.60;;
63943;SDS011;50121;51.218;7.664;2023-04-03T06:10:11;6.03;;;3.90;;
63943;SDS011;50121;51.218;7.664;2023-04-03T06:12:39;5.15;;;3.60;;
63943;SDS011;50121;51.218;7.664;2023-04-03T06:15:07;5.35;;;3.58;;
63943;SDS011;50121;51.218;7.664;2023-04-03T06:17:36;4.70;;;4.05;;
63943;SDS011;50121;51.218;7.664;2023-04-03T06:20:04;6.10;;;3.67;;
63943;SDS011;50121;51.218;7.664;2023-04-03T06:22:33;4.90;;;4.20;;
63943;SDS011;50121;51.218;7.664;2023-04-03T06:25:01;7.82;;;4.07;;
63943;SDS011;50121;51.218;7.664;2023-04-03T06:27:28;5.85;;;3.38;;
63943;SDS011;50121;51.218;7.664;2023-04-03T06:29:56;3.83;;;3.50;;
63943;SDS011;50121;51.218;7.664;2023-04-03T06:32:24;6.20;;;3.72;;
63943;SDS011;50121;51.218;7.664;2023-04-03T06:34:51;5.30;;;3.83;;
63943;SDS011;50121;51.218;7.664;2023-04-03T06:37:21;18.95;;;9.68;;
63943;SDS011;50121;51.218;7.664;2023-04-03T06:39:48;9.40;;;5.85;;
63943;SDS011;50121;51.218;7.664;2023-04-03T06:42:16;5.47;;;3.97;;
63943;SDS011;50121;51.218;7.664;2023-04-03T06:44:54;5.63;;;4.20;;
63943;SDS011;50121;51.218;7.664;2023-04-03T06:47:22;5.05;;;3.60;;
63943;SDS011;50121;51.218;7.664;2023-04-03T06:49:49;7.88;;;4.30;;
63943;SDS011;50121;51.218;7.664;2023-04-03T06:52:17;6.28;;;4.25;;
63943;SDS011;50121;51.218;7.664;2023-04-03T06:54:46;4.68;;;3.80;;
63943;SDS011;50121;51.218;7.664;2023-04-03T06:57:21;6.78;;;4.28;;
63943;SDS011;50121;51.218;7.664;2023-04-03T06:59:49;5.80;;;3.78;;
63943;SDS011;50121;51.218;7.664;2023-04-03T07:02:16;6.50;;;3.92;;
63943;SDS011;50121;51.218;7.664;2023-04-03T07:04:44;5.00;;;4.50;;
63943;SDS011;50121;51.218;7.664;2023-04-03T07:07:11;5.13;;;3.83;;
63943;SDS011;50121;51.218;7.664;2023-04-03T07:09:39;5.22;;;3.97;;
63943;SDS011;50121;51.218;7.664;2023-04-03T07:12:08;4.22;;;3.75;;
63943;SDS011;50121;51.218;7.664;2023-04-03T07:14:41;4.45;;;3.83;;
63943;SDS011;50121;51.218;7.664;2023-04-03T07:17:09;8.70;;;5.45;;
63943;SDS011;50121;51.218;7.664;2023-04-03T07:19:36;6.10;;;4.35;;
63943;SDS011;50121;51.218;7.664;2023-04-03T07:22:04;5.90;;;4.60;;
63943;SDS011;50121;51.218;7.664;2023-04-03T07:24:32;4.80;;;4.10;;
63943;SDS011;50121;51.218;7.664;2023-04-03T07:26:59;7.63;;;5.30;;
63943;SDS011;50121;51.218;7.664;2023-04-03T07:29:28;9.18;;;5.50;;
63943;SDS011;50121;51.218;7.664;2023-04-03T07:31:56;6.03;;;4.35;;
63943;SDS011;50121;51.218;7.664;2023-04-03T07:34:24;4.80;;;4.30;;
63943;SDS011;50121;51.218;7.664;2023-04-03T07:36:56;5.95;;;4.53;;
63943;SDS011;50121;51.218;7.664;2023-04-03T07:39:24;4.85;;;4.32;;
63943;SDS011;50121;51.218;7.664;2023-04-03T07:41:52;6.25;;;4.05;;
63943;SDS011;50121;51.218;7.664;2023-04-03T07:44:19;5.78;;;4.18;;
63943;SDS011;50121;51.218;7.664;2023-04-03T07:46:47;7.32;;;4.10;;
63943;SDS011;50121;51.218;7.664;2023-04-03T07:49:17;6.60;;;4.50;;
63943;SDS011;50121;51.218;7.664;2023-04-03T07:51:45;6.72;;;4.40;;
63943;SDS011;50121;51.218;7.664;2023-04-03T07:54:13;6.32;;;4.60;;
63943;SDS011;50121;51.218;7.664;2023-04-03T07:56:41;7.65;;;4.38;;
63943;SDS011;50121;51.218;7.664;2023-04-03T07:59:09;6.20;;;4.30;;
63943;SDS011;50121;51.218;7.664;2023-04-03T08:01:37;4.97;;;4.00;;
63943;SDS011;50121;51.218;7.664;2023-04-03T08:04:05;4.65;;;4.20;;
63943;SDS011;50121;51.218;7.664;2023-04-03T08:06:33;7.57;;;4.13;;
63943;SDS011;50121;51.218;7.664;2023-04-03T08:09:08;5.72;;;3.95;;
63943;SDS011;50121;51.218;7.664;2023-04-03T08:11:47;4.70;;;4.30;;
63943;SDS011;50121;51.218;7.664;2023-04-03T08:14:14;8.05;;;4.22;;
63943;SDS011;50121;51.218;7.664;2023-04-03T08:16:43;9.88;;;4.15;;
63943;SDS011;50121;51.218;7.664;2023-04-03T08:19:11;5.80;;;4.20;;
63943;SDS011;50121;51.218;7.664;2023-04-03T08:21:40;5.90;;;4.65;;
63943;SDS011;50121;51.218;7.664;2023-04-03T08:24:08;4.60;;;4.20;;
63943;SDS011;50121;51.218;7.664;2023-04-03T08:26:36;6.13;;;4.88;;
63943;SDS011;50121;51.218;7.664;2023-04-03T08:29:04;5.20;;;4.78;;
63943;SDS011;50121;51.218;7.664;2023-04-03T08:31:32;5.55;;;4.15;;
63943;SDS011;50121;51.218;7.664;2023-04-03T08:34:00;6.10;;;5.32;;
63943;SDS011;50121;51.218;7.664;2023-04-03T08:36:28;5.30;;;4.90;;
63943;SDS011;50121;51.218;7.664;2023-04-03T08:38:56;9.90;;;4.78;;
63943;SDS011;50121;51.218;7.664;2023-04-03T08:43:59;5.07;;;4.60;;
63943;SDS011;50121;51.218;7.664;2023-04-03T08:49:09;6.30;;;5.70;;
63943;SDS011;50121;51.218;7.664;2023-04-03T08:51:39;5.07;;;4.40;;
63943;SDS011;50121;51.218;7.664;2023-04-03T08:54:14;6.88;;;4.57;;
63943;SDS011;50121;51.218;7.664;2023-04-03T08:56:42;5.07;;;4.65;;
63943;SDS011;50121;51.218;7.664;2023-04-03T08:59:11;4.97;;;4.47;;
63943;SDS011;50121;51.218;7.664;2023-04-03T09:01:41;4.28;;;3.88;;
63943;SDS011;50121;51.218;7.664;2023-04-03T09:04:10;4.68;;;4.38;;
63943;SDS011;50121;51.218;7.664;2023-04-03T09:06:39;5.05;;;4.47;;
63943;SDS011;50121;51.218;7.664;2023-04-03T09:17:15;4.72;;;4.10;;
63943;SDS011;50121;51.218;7.664;2023-04-03T09:20:04;4.18;;;3.95;;
63943;SDS011;50121;51.218;7.664;2023-04-03T09:22:33;4.72;;;4.10;;
63943;SDS011;50121;51.218;7.664;2023-04-03T09:27:35;4.70;;;3.90;;
63943;SDS011;50121;51.218;7.664;2023-04-03T09:30:02;4.72;;;4.43;;
63943;SDS011;50121;51.218;7.664;2023-04-03T09:32:31;4.82;;;4.40;;
63943;SDS011;50121;51.218;7.664;2023-04-03T09:35:01;4.60;;;4.30;;
63943;SDS011;50121;51.218;7.664;2023-04-03T09:37:42;4.78;;;4.18;;
63943;SDS011;50121;51.218;7.664;2023-04-03T09:42:55;3.92;;;3.72;;
63943;SDS011;50121;51.218;7.664;2023-04-03T09:45:31;3.72;;;3.53;;
63943;SDS011;50121;51.218;7.664;2023-04-03T09:48:06;4.30;;;4.00;;
63943;SDS011;50121;51.218;7.664;2023-04-03T09:50:36;3.67;;;3.47;;
63943;SDS011;50121;51.218;7.664;2023-04-03T09:53:05;3.90;;;3.60;;
63943;SDS011;50121;51.218;7.664;2023-04-03T09:55:41;4.20;;;3.90;;
63943;SDS011;50121;51.218;7.664;2023-04-03T09:58:23;4.10;;;3.80;;
63943;SDS011;50121;51.218;7.664;2023-04-03T10:00:55;3.70;;;3.40;;
63943;SDS011;50121;51.218;7.664;2023-04-03T10:05:54;3.67;;;3.45;;
63943;SDS011;50121;51.218;7.664;2023-04-03T10:08:25;3.67;;;3.47;;
63943;SDS011;50121;51.218;7.664;2023-04-03T10:16:27;3.75;;;3.55;;
63943;SDS011;50121;51.218;7.664;2023-04-03T10:21:48;4.55;;;4.25;;
63943;SDS011;50121;51.218;7.664;2023-04-03T10:27:10;3.83;;;3.60;;
63943;SDS011;50121;51.218;7.664;2023-04-03T10:29:43;3.90;;;3.60;;
63943;SDS011;50121;51.218;7.664;2023-04-03T10:32:21;3.80;;;3.53;;
63943;SDS011;50121;51.218;7.664;2023-04-03T10:34:53;4.85;;;4.55;;
63943;SDS011;50121;51.218;7.664;2023-04-03T10:37:35;4.07;;;3.88;;
63943;SDS011;50121;51.218;7.664;2023-04-03T10:50:27;4.10;;;3.90;;
63943;SDS011;50121;51.218;7.664;2023-04-03T10:58:53;4.85;;;4.40;;
63943;SDS011;50121;51.218;7.664;2023-04-03T11:01:15;4.50;;;4.10;;
63943;SDS011;50121;51.218;7.664;2023-04-03T11:03:45;4.30;;;4.00;;
63943;SDS011;50121;51.218;7.664;2023-04-03T11:06:15;4.78;;;4.47;;
63943;SDS011;50121;51.218;7.664;2023-04-03T11:11:20;4.63;;;4.32;;
63943;SDS011;50121;51.218;7.664;2023-04-03T11:13:55;4.60;;;4.30;;
63943;SDS011;50121;51.218;7.664;2023-04-03T11:16:24;4.45;;;4.15;;
63943;SDS011;50121;51.218;7.664;2023-04-03T11:18:57;5.35;;;4.57;;
63943;SDS011;50121;51.218;7.664;2023-04-03T11:21:44;5.00;;;4.60;;
63943;SDS011;50121;51.218;7.664;2023-04-03T11:24:22;5.05;;;4.55;;
63943;SDS011;50121;51.218;7.664;2023-04-03T11:26:52;4.53;;;4.22;;
63943;SDS011;50121;51.218;7.664;2023-04-03T11:29:22;4.60;;;4.20;;
63943;SDS011;50121;51.218;7.664;2023-04-03T11:37:00;4.20;;;3.90;;
63943;SDS011;50121;51.218;7.664;2023-04-03T11:39:32;4.20;;;3.90;;
63943;SDS011;50121;51.218;7.664;2023-04-03T11:42:16;4.50;;;4.20;;
63943;SDS011;50121;51.218;7.664;2023-04-03T11:44:49;5.07;;;4.68;;
63943;SDS011;50121;51.218;7.664;2023-04-03T11:50:03;3.95;;;3.55;;
63943;SDS011;50121;51.218;7.664;2023-04-03T12:08:36;4.20;;;3.90;;
63943;SDS011;50121;51.218;7.664;2023-04-03T12:16:20;4.68;;;4.38;;
63943;SDS011;50121;51.218;7.664;2023-04-03T12:21:23;4.68;;;4.30;;
63943;SDS011;50121;51.218;7.664;2023-04-03T12:24:00;4.28;;;4.05;;
63943;SDS011;50121;51.218;7.664;2023-04-03T12:29:20;4.80;;;4.50;;
63943;SDS011;50121;51.218;7.664;2023-04-03T12:32:36;4.53;;;4.22;;
63943;SDS011;50121;51.218;7.664;2023-04-03T12:37:21;4.70;;;4.40;;
63943;SDS011;50121;51.218;7.664;2023-04-03T12:47:37;4.72;;;4.32;;
63943;SDS011;50121;51.218;7.664;2023-04-03T12:50:25;4.70;;;4.30;;
63943;SDS011;50121;51.218;7.664;2023-04-03T12:52:57;5.57;;;5.05;;
63943;SDS011;50121;51.218;7.664;2023-04-03T12:55:26;5.35;;;4.90;;
63943;SDS011;50121;51.218;7.664;2023-04-03T12:57:54;4.75;;;4.32;;
63943;SDS011;50121;51.218;7.664;2023-04-03T13:02:53;6.43;;;4.78;;
63943;SDS011;50121;51.218;7.664;2023-04-03T13:05:21;5.05;;;4.65;;
63943;SDS011;50121;51.218;7.664;2023-04-03T13:07:50;4.82;;;4.53;;
63943;SDS011;50121;51.218;7.664;2023-04-03T13:10:19;5.10;;;4.78;;
63943;SDS011;50121;51.218;7.664;2023-04-03T13:15:17;9.55;;;4.93;;
63943;SDS011;50121;51.218;7.664;2023-04-03T13:17:44;5.53;;;4.68;;
63943;SDS011;50121;51.218;7.664;2023-04-03T13:20:48;5.05;;;4.60;;
63943;SDS011;50121;51.218;7.664;2023-04-03T13:23:10;5.25;;;4.38;;
63943;SDS011;50121;51.218;7.664;2023-04-03T13:25:40;4.30;;;3.90;;
63943;SDS011;50121;51.218;7.664;2023-04-03T13:28:11;6.22;;;4.80;;
63943;SDS011;50121;51.218;7.664;2023-04-03T13:30:40;5.07;;;4.57;;
63943;SDS011;50121;51.218;7.664;2023-04-03T13:33:23;5.25;;;4.75;;
63943;SDS011;50121;51.218;7.664;2023-04-03T13:36:00;5.50;;;5.00;;
63943;SDS011;50121;51.218;7.664;2023-04-03T13:38:29;5.05;;;4.75;;
63943;SDS011;50121;51.218;7.664;2023-04-03T13:41:00;5.30;;;4.80;;
63943;SDS011;50121;51.218;7.664;2023-04-03T13:43:31;4.45;;;4.15;;
63943;SDS011;50121;51.218;7.664;2023-04-03T13:48:27;6.43;;;4.70;;
63943;SDS011;50121;51.218;7.664;2023-04-03T13:51:40;5.75;;;4.95;;
63943;SDS011;50121;51.218;7.664;2023-04-03T13:53:44;5.60;;;5.15;;
63943;SDS011;50121;51.218;7.664;2023-04-03T14:04:11;5.40;;;5.00;;
63943;SDS011;50121;51.218;7.664;2023-04-03T14:06:39;5.53;;;5.13;;
63943;SDS011;50121;51.218;7.664;2023-04-03T14:09:07;6.25;;;5.70;;
63943;SDS011;50121;51.218;7.664;2023-04-03T14:11:34;6.78;;;6.18;;
63943;SDS011;50121;51.218;7.664;2023-04-03T14:14:05;6.68;;;6.13;;
63943;SDS011;50121;51.218;7.664;2023-04-03T14:16:39;6.32;;;5.82;;
63943;SDS011;50121;51.218;7.664;2023-04-03T14:19:11;6.05;;;5.72;;
63943;SDS011;50121;51.218;7.664;2023-04-03T14:21:43;7.28;;;6.68;;
63943;SDS011;50121;51.218;7.664;2023-04-03T14:24:11;6.53;;;5.97;;
63943;SDS011;50121;51.218;7.664;2023-04-03T14:26:39;6.70;;;6.30;;
63943;SDS011;50121;51.218;7.664;2023-04-03T14:29:09;8.30;;;5.38;;
63943;SDS011;50121;51.218;7.664;2023-04-03T14:31:38;6.00;;;5.60;;
63943;SDS011;50121;51.218;7.664;2023-04-03T14:34:06;6.82;;;6.43;;
63943;SDS011;50121;51.218;7.664;2023-04-03T14:36:33;8.60;;;5.90;;
63943;SDS011;50121;51.218;7.664;2023-04-03T14:39:01;6.70;;;6.30;;
63943;SDS011;50121;51.218;7.664;2023-04-03T14:41:30;7.10;;;6.50;;
63943;SDS011;50121;51.218;7.664;2023-04-03T14:43:58;6.32;;;5.82;;
63943;SDS011;50121;51.218;7.664;2023-04-03T14:46:28;7.20;;;6.60;;
63943;SDS011;50121;51.218;7.664;2023-04-03T14:49:00;6.50;;;5.97;;
63943;SDS011;50121;51.218;7.664;2023-04-03T14:51:28;6.57;;;6.18;;
63943;SDS011;50121;51.218;7.664;2023-04-03T14:53:56;6.78;;;6.30;;
63943;SDS011;50121;51.218;7.664;2023-04-03T14:56:25;6.60;;;6.10;;
63943;SDS011;50121;51.218;7.664;2023-04-03T14:58:55;6.80;;;6.40;;
63943;SDS011;50121;51.218;7.664;2023-04-03T15:01:23;6.45;;;5.95;;
63943;SDS011;50121;51.218;7.664;2023-04-03T15:03:51;5.45;;;5.03;;
63943;SDS011;50121;51.218;7.664;2023-04-03T15:06:19;6.63;;;6.00;;
63943;SDS011;50121;51.218;7.664;2023-04-03T15:08:47;6.35;;;5.95;;
63943;SDS011;50121;51.218;7.664;2023-04-03T15:11:14;6.97;;;6.47;;
63943;SDS011;50121;51.218;7.664;2023-04-03T15:13:42;6.90;;;6.47;;
63943;SDS011;50121;51.218;7.664;2023-04-03T15:16:15;7.13;;;6.63;;
63943;SDS011;50121;51.218;7.664;2023-04-03T15:18:43;7.15;;;6.55;;
63943;SDS011;50121;51.218;7.664;2023-04-03T15:21:11;6.50;;;6.05;;
63943;SDS011;50121;51.218;7.664;2023-04-03T15:23:39;6.93;;;6.22;;
63943;SDS011;50121;51.218;7.664;2023-04-03T15:26:06;6.05;;;5.53;;
63943;SDS011;50121;51.218;7.664;2023-04-03T15:28:38;7.82;;;7.13;;
63943;SDS011;50121;51.218;7.664;2023-04-03T15:31:06;7.17;;;6.67;;
63943;SDS011;50121;51.218;7.664;2023-04-03T15:33:34;7.10;;;6.60;;
63943;SDS011;50121;51.218;7.664;2023-04-03T15:36:02;7.20;;;6.80;;
63943;SDS011;50121;51.218;7.664;2023-04-03T15:38:31;7.82;;;7.13;;
63943;SDS011;50121;51.218;7.664;2023-04-03T15:40:59;8.20;;;7.53;;
63943;SDS011;50121;51.218;7.664;2023-04-03T15:43:26;7.60;;;7.00;;
63943;SDS011;50121;51.218;7.664;2023-04-03T15:45:56;7.40;;;6.85;;
63943;SDS011;50121;51.218;7.664;2023-04-03T15:48:24;7.57;;;7.07;;
63943;SDS011;50121;51.218;7.664;2023-04-03T15:50:51;7.55;;;6.47;;
63943;SDS011;50121;51.218;7.664;2023-04-03T15:53:19;7.22;;;6.57;;
63943;SDS011;50121;51.218;7.664;2023-04-03T15:55:47;7.22;;;6.72;;
63943;SDS011;50121;51.218;7.664;2023-04-03T15:58:15;7.10;;;6.40;;
63943;SDS011;50121;51.218;7.664;2023-04-03T16:00:43;6.40;;;6.00;;
63943;SDS011;50121;51.218;7.664;2023-04-03T16:03:12;6.38;;;5.88;;
63943;SDS011;50121;51.218;7.664;2023-04-03T16:05:42;6.88;;;6.38;;
63943;SDS011;50121;51.218;7.664;2023-04-03T16:08:09;5.68;;;5.28;;
63943;SDS011;50121;51.218;7.664;2023-04-03T16:10:37;5.47;;;4.95;;
63943;SDS011;50121;51.218;7.664;2023-04-03T16:13:06;5.75;;;5.35;;
63943;SDS011;50121;51.218;7.664;2023-04-03T16:15:34;5.50;;;5.05;;
63943;SDS011;50121;51.218;7.664;2023-04-03T16:18:02;6.18;;;5.63;;
63943;SDS011;50121;51.218;7.664;2023-04-03T16:20:30;6.18;;;5.75;;
63943;SDS011;50121;51.218;7.664;2023-04-03T16:22:58;7.05;;;6.55;;
63943;SDS011;50121;51.218;7.664;2023-04-03T16:25:27;6.60;;;6.10;;
63943;SDS011;50121;51.218;7.664;2023-04-03T16:27:54;6.60;;;6.15;;
63943;SDS011;50121;51.218;7.664;2023-04-03T16:30:22;6.40;;;5.90;;
63943;SDS011;50121;51.218;7.664;2023-04-03T16:32:50;6.32;;;5.80;;
63943;SDS011;50121;51.218;7.664;2023-04-03T16:35:17;6.30;;;5.90;;
63943;SDS011;50121;51.218;7.664;2023-04-03T16:37:45;7.15;;;6.65;;
63943;SDS011;50121;51.218;7.664;2023-04-03T16:40:13;6.55;;;5.97;;
63943;SDS011;50121;51.218;7.664;2023-04-03T16:42:40;6.60;;;6.10;;
63943;SDS011;50121;51.218;7.664;2023-04-03T16:45:08;6.35;;;5.95;;
63943;SDS011;50121;51.218;7.664;2023-04-03T16:47:36;6.32;;;5.93;;
63943;SDS011;50121;51.218;7.664;2023-04-03T16:50:04;6.03;;;5.63;;
63943;SDS011;50121;51.218;7.664;2023-04-03T16:52:31;6.78;;;6.20;;
63943;SDS011;50121;51.218;7.664;2023-04-03T16:54:59;7.20;;;6.60;;
63943;SDS011;50121;51.218;7.664;2023-04-03T16:57:26;6.68;;;6.00;;